Time;durP1;ratioP1;P1;durP2;ratioP2;P2;SDS_P1;SDS_P2;PMS_P1;PMS_P2;Temp;Humidity;BMP_temperature;BMP_pressure;BME280_temperature;BME280_humidity;BME280_pressure;Samples;Min_cycle;Max_cycle;Signal;HPM_P1;HPM_P2
2024/01/14 00:05:57;;;;;;;;;;;-3.30;99.90;;;;;;20852323;28;19925;-75
2024/01/14 00:15:58;;;;;;;;;;;-3.40;99.90;;;;;;20874473;28;19927;-76
2024/01/14 00:25:58;;;;;;;;;;;-3.30;99.90;;;;;;20871743;28;20272;-76
2024/01/14 00:36:03;;;;;;;;;;;-3.20;99.90;;;;;;20867715;28;19929;-75
2024/01/14 00:46:04;;;;;;;;;;;-3.30;99.90;;;;;;20864017;28;19917;-75
2024/01/14 00:56:04;;;;;;;;;;;-3.40;99.90;;;;;;20863260;28;19928;-77
2024/01/14 01:06:05;;;;;;;;;;;-3.40;99.90;;;;;;20862211;28;19963;-76
2024/01/14 01:16:06;;;;;;;;;;;-3.20;99.90;;;;;;20862756;28;20376;-76
2024/01/14 01:26:06;;;;;;;;;;;-3.30;99.90;;;;;;20860863;28;19917;-76
2024/01/14 01:36:07;;;;;;;;;;;-3.30;99.90;;;;;;20807419;28;1824896;-76
2024/01/14 01:46:08;;;;;;;;;;;-3.60;99.90;;;;;;20859598;28;20182;-75
2024/01/14 01:56:09;;;;;;;;;;;-3.70;99.90;;;;;;20847570;28;19924;-77
2024/01/14 02:06:10;;;;;;;;;;;-3.60;99.90;;;;;;20858106;28;19921;-76
2024/01/14 02:16:12;;;;;;;;;;;-3.50;99.90;;;;;;20876022;28;20014;-76
2024/01/14 02:26:12;;;;;;;;;;;-3.60;99.90;;;;;;20850718;28;20387;-77
2024/01/14 02:36:13;;;;;;;;;;;-3.60;99.90;;;;;;20866291;28;19921;-75
2024/01/14 02:46:14;;;;;;;;;;;-3.70;99.90;;;;;;20851860;28;20016;-76
2024/01/14 02:56:14;;;;;;;;;;;-3.80;99.90;;;;;;20837665;28;20292;-76
2024/01/14 03:06:15;;;;;;;;;;;-3.70;99.90;;;;;;20833566;28;19917;-76
2024/01/14 03:16:15;;;;;;;;;;;-3.80;99.90;;;;;;20863572;28;20310;-76
2024/01/14 03:26:16;;;;;;;;;;;-3.70;99.90;;;;;;20841397;28;19923;-76
2024/01/14 03:36:17;;;;;;;;;;;-3.70;99.90;;;;;;20858699;28;19964;-77
2024/01/14 03:46:17;;;;;;;;;;;-3.70;99.90;;;;;;20843595;28;20410;-76
2024/01/14 03:56:18;;;;;;;;;;;-3.70;99.90;;;;;;20865398;28;19920;-75
2024/01/14 04:06:20;;;;;;;;;;;-3.70;99.90;;;;;;20846847;28;20023;-74
2024/01/14 04:16:21;;;;;;;;;;;-3.60;99.90;;;;;;20853473;28;19920;-74
2024/01/14 04:26:22;;;;;;;;;;;-3.60;99.90;;;;;;20850851;28;19921;-76
2024/01/14 04:36:23;;;;;;;;;;;-3.70;99.90;;;;;;20843428;28;19917;-76
2024/01/14 04:46:23;;;;;;;;;;;-3.80;99.90;;;;;;20853146;28;19924;-76
2024/01/14 04:56:24;;;;;;;;;;;-3.80;99.90;;;;;;20860539;28;19913;-74
2024/01/14 05:06:25;;;;;;;;;;;-3.70;99.90;;;;;;20832381;28;19921;-74
2024/01/14 05:16:26;;;;;;;;;;;-3.70;99.90;;;;;;20852356;28;19917;-75
2024/01/14 05:26:27;;;;;;;;;;;-3.60;99.90;;;;;;20865979;28;19913;-77
2024/01/14 05:36:27;;;;;;;;;;;-3.60;99.90;;;;;;20863498;28;19917;-77
2024/01/14 05:46:28;;;;;;;;;;;-3.50;99.90;;;;;;20848857;28;19975;-76
2024/01/14 05:56:30;;;;;;;;;;;-3.60;99.90;;;;;;20856824;28;19917;-77
2024/01/14 06:06:30;;;;;;;;;;;-3.50;99.90;;;;;;20871850;28;19920;-76
2024/01/14 06:16:31;;;;;;;;;;;-3.50;99.90;;;;;;20843848;28;20403;-76
2024/01/14 06:26:31;;;;;;;;;;;-3.70;99.90;;;;;;20858298;28;19917;-74
2024/01/14 06:36:32;;;;;;;;;;;-4.00;99.90;;;;;;20857093;28;20059;-75
2024/01/14 06:46:33;;;;;;;;;;;-4.10;99.90;;;;;;20856122;28;20263;-75
2024/01/14 06:56:33;;;;;;;;;;;-4.00;99.90;;;;;;20867922;28;19917;-75
2024/01/14 07:06:34;;;;;;;;;;;-3.90;99.90;;;;;;20845848;28;19920;-74
2024/01/14 07:16:35;;;;;;;;;;;-3.70;99.90;;;;;;20875767;28;19948;-77
2024/01/14 07:26:36;;;;;;;;;;;-3.70;99.90;;;;;;20891387;28;20299;-77
2024/01/14 07:36:37;;;;;;;;;;;-3.70;99.90;;;;;;20895812;28;19916;-76
2024/01/14 07:46:37;;;;;;;;;;;-3.60;99.90;;;;;;20891620;28;20269;-75
2024/01/14 07:56:38;;;;;;;;;;;-3.70;99.90;;;;;;20871468;28;20335;-74
2024/01/14 08:06:39;;;;;;;;;;;-3.70;99.90;;;;;;20853732;28;19971;-74
2024/01/14 08:16:39;;;;;;;;;;;-3.60;99.90;;;;;;20875562;28;20014;-74
2024/01/14 08:26:44;;;;;;;;;;;-3.50;99.90;;;;;;20874219;28;20299;-74
2024/01/14 08:36:45;;;;;;;;;;;-3.30;99.90;;;;;;20884643;28;19923;-74
2024/01/14 08:46:47;;;;;;;;;;;-3.00;99.90;;;;;;20880818;28;20337;-74
2024/01/14 08:56:48;;;;;;;;;;;-2.90;99.90;;;;;;20865112;28;19968;-74
2024/01/14 09:06:49;;;;;;;;;;;-2.60;99.90;;;;;;20883525;28;20360;-74
2024/01/14 09:16:50;;;;;;;;;;;-2.70;99.90;;;;;;20875366;28;20066;-74
2024/01/14 09:26:50;;;;;;;;;;;-2.50;99.90;;;;;;20880316;28;20407;-74
2024/01/14 09:36:51;;;;;;;;;;;-2.30;99.90;;;;;;20885286;28;19921;-74
2024/01/14 09:46:51;;;;;;;;;;;-2.10;99.90;;;;;;20882766;28;19917;-74
2024/01/14 09:56:53;;;;;;;;;;;-1.80;99.90;;;;;;20865025;28;19947;-74
2024/01/14 10:06:54;;;;;;;;;;;-1.30;99.90;;;;;;20883336;28;20372;-74
2024/01/14 10:16:55;;;;;;;;;;;-0.80;99.90;;;;;;20882172;28;19921;-74
2024/01/14 10:26:55;;;;;;;;;;;-1.00;99.90;;;;;;20877961;28;20288;-74
2024/01/14 10:36:59;;;;;;;;;;;0.00;99.90;;;;;;20881716;28;19917;-74
2024/01/14 10:47:02;;;;;;;;;;;0.30;99.90;;;;;;20882203;28;19916;-74
2024/01/14 10:57:10;;;;;;;;;;;2.30;99.90;;;;;;20850206;28;20376;-75
2024/01/14 11:07:12;;;;;;;;;;;3.30;99.90;;;;;;20867194;28;20295;-74
2024/01/14 11:17:32;;;;;;;;;;;3.40;99.90;;;;;;20881880;28;19964;-75
2024/01/14 11:27:33;;;;;;;;;;;3.90;99.90;;;;;;20867391;28;19917;-73
2024/01/14 11:37:36;;;;;;;;;;;4.70;99.90;;;;;;20827030;28;20380;-75
2024/01/14 11:47:38;;;;;;;;;;;5.60;99.90;;;;;;20823342;28;19913;-72
2024/01/14 11:57:38;;;;;;;;;;;4.60;99.90;;;;;;20849295;28;19979;-75
2024/01/14 12:07:39;;;;;;;;;;;5.80;99.90;;;;;;20889425;28;19913;-76
2024/01/14 12:17:40;;;;;;;;;;;7.30;99.90;;;;;;20891121;28;19917;-73
2024/01/14 12:27:41;;;;;;;;;;;8.00;99.90;;;;;;20891493;28;19913;-75
2024/01/14 12:37:41;;;;;;;;;;;7.70;99.90;;;;;;20890683;28;19917;-74
2024/01/14 12:47:42;;;;;;;;;;;7.90;99.90;;;;;;20888988;28;19924;-76
2024/01/14 12:57:44;;;;;;;;;;;6.80;99.90;;;;;;20889346;28;19928;-76
2024/01/14 13:07:45;;;;;;;;;;;7.70;99.90;;;;;;20890675;28;19917;-75
2024/01/14 13:17:46;;;;;;;;;;;7.90;99.90;;;;;;20888946;28;19924;-75
2024/01/14 13:27:47;;;;;;;;;;;8.00;99.90;;;;;;20886187;28;20011;-75
2024/01/14 13:37:47;;;;;;;;;;;8.20;99.90;;;;;;20885069;28;20265;-75
2024/01/14 13:47:48;;;;;;;;;;;7.70;99.90;;;;;;20887310;28;19914;-74
2024/01/14 13:57:49;;;;;;;;;;;6.90;99.90;;;;;;20885503;28;19925;-75
2024/01/14 14:07:50;;;;;;;;;;;5.60;99.90;;;;;;20883710;28;19913;-75
2024/01/14 14:17:50;;;;;;;;;;;4.70;99.90;;;;;;20883716;28;20420;-75
2024/01/14 14:27:51;;;;;;;;;;;3.90;99.90;;;;;;20881022;28;19964;-73
2024/01/14 14:37:52;;;;;;;;;;;3.20;99.90;;;;;;20882099;28;19963;-73
2024/01/14 14:47:52;;;;;;;;;;;2.90;99.90;;;;;;20882653;28;20374;-74
2024/01/14 14:57:53;;;;;;;;;;;3.20;99.90;;;;;;20865970;28;19925;-73
2024/01/14 15:07:53;;;;;;;;;;;3.10;99.90;;;;;;20867919;28;19928;-74
2024/01/14 15:17:54;;;;;;;;;;;2.80;99.90;;;;;;20853917;28;20391;-74
2024/01/14 15:27:55;;;;;;;;;;;2.50;99.90;;;;;;20819807;28;19913;-75
2024/01/14 15:37:56;;;;;;;;;;;2.50;99.90;;;;;;20812861;28;19921;-74
2024/01/14 15:47:56;;;;;;;;;;;2.10;99.90;;;;;;20838410;28;20700;-74
2024/01/14 15:57:57;;;;;;;;;;;2.10;99.90;;;;;;20873275;28;19917;-75
2024/01/14 16:07:58;;;;;;;;;;;2.00;99.90;;;;;;20864897;28;19968;-75
2024/01/14 16:18:00;;;;;;;;;;;1.80;99.90;;;;;;20875573;28;20428;-76
2024/01/14 16:28:04;;;;;;;;;;;1.60;99.90;;;;;;20874327;28;19917;-76
2024/01/14 16:38:04;;;;;;;;;;;1.20;99.90;;;;;;20870734;28;20364;-76
2024/01/14 16:48:05;;;;;;;;;;;1.20;99.90;;;;;;20873373;28;19935;-75
2024/01/14 16:58:06;;;;;;;;;;;0.90;99.90;;;;;;20916816;28;19924;-75
2024/01/14 17:08:06;;;;;;;;;;;1.10;99.90;;;;;;20864241;28;20000;-76
2024/01/14 17:18:07;;;;;;;;;;;0.90;99.90;;;;;;20886120;28;20062;-75
2024/01/14 17:28:08;;;;;;;;;;;0.50;99.90;;;;;;20908586;28;19928;-75
2024/01/14 17:38:08;;;;;;;;;;;0.50;99.90;;;;;;20916073;28;20272;-75
2024/01/14 17:48:09;;;;;;;;;;;-0.20;99.90;;;;;;20872380;28;19913;-75
2024/01/14 17:58:09;;;;;;;;;;;-0.10;99.90;;;;;;20893832;28;20458;-75
2024/01/14 18:08:11;;;;;;;;;;;0.00;99.90;;;;;;20905441;28;19912;-75
2024/01/14 18:18:11;;;;;;;;;;;0.20;99.90;;;;;;20878732;28;20070;-75
2024/01/14 18:28:12;;;;;;;;;;;0.20;99.90;;;;;;20907913;28;19948;-75
2024/01/14 18:38:14;;;;;;;;;;;0.10;99.90;;;;;;20911294;28;19999;-75
2024/01/14 18:48:14;;;;;;;;;;;0.10;99.90;;;;;;20905294;28;19999;-74
2024/01/14 18:58:17;;;;;;;;;;;0.10;99.90;;;;;;20901267;28;19948;-73
2024/01/14 19:08:17;;;;;;;;;;;0.10;99.90;;;;;;20885575;28;20331;-74
2024/01/14 19:18:18;;;;;;;;;;;0.20;99.90;;;;;;20862571;28;19917;-75
2024/01/14 19:28:18;;;;;;;;;;;0.10;99.90;;;;;;20907133;28;20478;-74
2024/01/14 19:38:19;;;;;;;;;;;0.20;99.90;;;;;;20890301;28;19999;-75
2024/01/14 19:48:20;;;;;;;;;;;0.20;99.90;;;;;;20901267;28;20384;-74
2024/01/14 19:58:21;;;;;;;;;;;0.30;99.90;;;;;;20897071;28;19917;-74
2024/01/14 20:08:22;;;;;;;;;;;0.30;99.90;;;;;;20908485;28;19959;-74
2024/01/14 20:18:23;;;;;;;;;;;0.30;99.90;;;;;;20900686;28;20296;-74
2024/01/14 20:28:23;;;;;;;;;;;0.30;99.90;;;;;;20912966;28;19920;-74
2024/01/14 20:38:24;;;;;;;;;;;0.20;99.90;;;;;;20921219;28;19917;-74
2024/01/14 20:48:24;;;;;;;;;;;0.10;99.90;;;;;;20897026;28;19913;-74
2024/01/14 20:58:25;;;;;;;;;;;0.10;99.90;;;;;;20864540;28;19925;-74
2024/01/14 21:08:27;;;;;;;;;;;0.00;99.90;;;;;;20856460;28;20391;-75
2024/01/14 21:18:27;;;;;;;;;;;0.00;99.90;;;;;;20859723;28;20364;-74
2024/01/14 21:28:28;;;;;;;;;;;-0.10;99.90;;;;;;20867652;28;19972;-73
2024/01/14 21:38:29;;;;;;;;;;;-0.10;99.90;;;;;;20857966;28;19921;-74
2024/01/14 21:48:29;;;;;;;;;;;-0.10;99.90;;;;;;20866667;28;19928;-74
2024/01/14 21:58:30;;;;;;;;;;;-0.10;99.90;;;;;;20870062;28;19924;-75
2024/01/14 22:08:33;;;;;;;;;;;-0.20;99.90;;;;;;20845085;28;19913;-75
2024/01/14 22:18:33;;;;;;;;;;;-0.10;99.90;;;;;;20880353;28;19975;-73
2024/01/14 22:28:34;;;;;;;;;;;-0.10;99.90;;;;;;20860870;28;19913;-74
2024/01/14 22:38:34;;;;;;;;;;;0.00;99.90;;;;;;20866065;28;19920;-75
2024/01/14 22:48:35;;;;;;;;;;;0.00;99.90;;;;;;20862718;28;20372;-75
2024/01/14 22:58:36;;;;;;;;;;;0.10;99.90;;;;;;20861348;28;19917;-75
2024/01/14 23:08:36;;;;;;;;;;;0.10;99.90;;;;;;20856503;28;19913;-75
2024/01/14 23:18:37;;;;;;;;;;;0.20;99.90;;;;;;20859361;28;19917;-75
2024/01/14 23:28:37;;;;;;;;;;;0.20;99.90;;;;;;20858015;28;19920;-73
2024/01/14 23:38:38;;;;;;;;;;;0.20;99.90;;;;;;20858380;28;19970;-75
2024/01/14 23:48:39;;;;;;;;;;;0.10;99.90;;;;;;20882540;28;19936;-75
2024/01/14 23:58:39;;;;;;;;;;;0.20;99.90;;;;;;20854093;28;19917;-75
